Time;durP1;ratioP1;P1;durP2;ratioP2;P2;SDS_P1;SDS_P2;PMS_P1;PMS_P2;Temp;Humidity;BMP_temperature;BMP_pressure;BME280_temperature;BME280_humidity;BME280_pressure;Samples;Min_cycle;Max_cycle;Signal;HPM_P1;HPM_P2
2022/11/11 00:00:35;;;;;;;40.97;23.38;;;333.10;2329.60;;;;;;5134247;27;20043;-60
2022/11/11 00:03:01;;;;;;;35.22;23.63;;;333.20;2329.60;;;;;;5131511;27;20062;-61
2022/11/11 00:05:27;;;;;;;34.30;24.42;;;333.20;2329.60;;;;;;5131827;27;20051;-65
2022/11/11 00:07:58;;;;;;;34.72;22.73;;;333.20;2329.60;;;;;;5131398;27;20528;-63
2022/11/11 00:10:33;;;;;;;33.13;22.52;;;333.20;2329.60;;;;;;5131359;27;20046;-61
2022/11/11 00:13:04;;;;;;;36.88;23.48;;;333.20;2329.60;;;;;;5134451;27;20419;-64
2022/11/11 00:15:29;;;;;;;35.40;22.80;;;333.30;2329.60;;;;;;5131263;27;20027;-65
2022/11/11 00:26:13;;;;;;;35.90;21.40;;;333.10;2329.60;;;;;;5131749;27;20038;-61
2022/11/11 00:28:38;;;;;;;28.08;21.10;;;333.00;2329.60;;;;;;5131441;27;20031;-61
2022/11/11 00:31:09;;;;;;;39.55;23.55;;;333.00;2329.60;;;;;;5131187;27;20023;-63
2022/11/11 00:33:35;;;;;;;32.97;21.13;;;332.90;2329.60;;;;;;5131541;27;20026;-61
2022/11/11 00:36:02;;;;;;;29.92;19.77;;;332.90;2329.60;;;;;;5131159;27;20027;-64
2022/11/11 00:38:46;;;;;;;33.90;20.02;;;332.90;2329.60;;;;;;5131335;27;20472;-61
2022/11/11 00:41:17;;;;;;;40.60;27.42;;;332.90;2329.60;;;;;;5130980;27;20039;-61
2022/11/11 00:43:45;;;;;;;35.83;20.13;;;333.00;2329.60;;;;;;5130857;27;20019;-64
2022/11/11 00:51:40;;;;;;;30.60;21.25;;;332.90;2329.60;;;;;;5131252;27;20083;-61
2022/11/11 00:54:07;;;;;;;28.42;19.83;;;333.00;2329.60;;;;;;5131422;27;20110;-62
2022/11/11 00:56:35;;;;;;;31.33;20.70;;;332.90;2329.60;;;;;;5132904;27;20121;-61
2022/11/11 00:59:02;;;;;;;31.63;21.00;;;332.90;2329.60;;;;;;5132381;27;20042;-65
2022/11/11 01:01:27;;;;;;;27.48;18.98;;;332.90;2329.60;;;;;;5132751;27;20026;-65
2022/11/11 01:03:53;;;;;;;34.63;23.33;;;332.90;2329.60;;;;;;5132183;27;20027;-60
2022/11/11 01:06:19;;;;;;;28.10;19.63;;;332.90;2329.60;;;;;;5132643;27;20107;-60
2022/11/11 01:08:44;;;;;;;27.20;17.15;;;333.00;2329.60;;;;;;5132332;27;20055;-60
2022/11/11 01:11:15;;;;;;;43.00;26.63;;;332.90;2329.60;;;;;;5132097;27;20019;-64
2022/11/11 01:13:42;;;;;;;27.02;17.73;;;332.90;2329.60;;;;;;5114258;27;20031;-59
2022/11/11 01:16:12;;;;;;;30.75;19.42;;;332.90;2329.60;;;;;;5132216;27;20042;-59
2022/11/11 01:18:38;;;;;;;31.98;19.75;;;332.80;2329.60;;;;;;5137566;27;20034;-58
2022/11/11 01:21:09;;;;;;;32.00;19.70;;;308.10;2304.00;;;;;;5140191;27;20054;-58
2022/11/11 01:23:36;;;;;;;28.60;18.15;;;308.00;2304.00;;;;;;5142477;27;20027;-59
2022/11/11 01:26:10;;;;;;;30.33;18.98;;;308.00;2304.00;;;;;;5140364;27;20510;-58
2022/11/11 01:28:36;;;;;;;27.70;18.15;;;308.00;2304.00;;;;;;5141301;27;20038;-59
2022/11/11 01:31:09;;;;;;;26.55;19.02;;;307.90;2304.00;;;;;;5142683;27;20142;-57
2022/11/11 01:33:35;;;;;;;26.95;19.48;;;307.80;2304.00;;;;;;5142283;27;20034;-59
2022/11/11 01:36:25;;;;;;;27.10;17.17;;;307.80;2304.00;;;;;;5140271;27;20075;-58
2022/11/11 01:38:56;;;;;;;26.50;17.33;;;307.80;2304.00;;;;;;5138551;27;20030;-59
2022/11/11 01:41:37;;;;;;;33.28;18.80;;;307.70;2304.00;;;;;;5141664;27;20054;-59
2022/11/11 01:44:37;;;;;;;25.50;16.50;;;307.70;2304.00;;;;;;5142433;27;20380;-58
2022/11/11 01:47:05;;;;;;;22.67;17.08;;;307.60;2304.00;;;;;;5140091;27;20026;-58
2022/11/11 01:49:44;;;;;;;32.58;19.13;;;307.60;2304.00;;;;;;5141638;27;20058;-58
2022/11/11 01:52:13;;;;;;;29.20;17.80;;;307.60;2304.00;;;;;;5141639;27;20026;-58
2022/11/11 01:54:54;;;;;;;33.53;17.10;;;307.50;2304.00;;;;;;5148613;27;20111;-58
2022/11/11 01:57:22;;;;;;;31.08;19.05;;;307.50;2304.00;;;;;;5145944;27;20059;-59
2022/11/11 01:59:52;;;;;;;29.92;17.30;;;307.40;1971.20;;;;;;5141744;27;20031;-59
2022/11/11 02:02:40;;;;;;;23.27;15.45;;;307.40;2048.00;;;;;;5142226;27;20031;-59
2022/11/11 02:07:56;;;;;;;25.08;18.13;;;307.40;2304.00;;;;;;5142340;27;20021;-59
2022/11/11 02:10:25;;;;;;;24.90;15.90;;;307.50;2304.00;;;;;;5140688;27;20102;-60
2022/11/11 02:15:36;;;;;;;29.15;17.80;;;307.60;2304.00;;;;;;5139948;27;20026;-59
2022/11/11 02:18:03;;;;;;;26.90;15.95;;;307.60;2304.00;;;;;;5141241;27;20464;-59
2022/11/11 02:20:34;;;;;;;27.10;17.95;;;307.70;2304.00;;;;;;5141687;27;20035;-58
2022/11/11 02:23:19;;;;;;;30.23;16.05;;;307.70;2304.00;;;;;;5139046;27;20029;-59
2022/11/11 02:25:47;;;;;;;24.45;17.45;;;307.80;2304.00;;;;;;5133950;27;20031;-59
2022/11/11 02:28:14;;;;;;;30.33;18.40;;;307.70;2304.00;;;;;;5131051;27;20031;-61
2022/11/11 02:30:40;;;;;;;34.45;22.63;;;307.70;2304.00;;;;;;5148140;27;20026;-59
2022/11/11 02:33:06;;;;;;;26.10;17.02;;;307.80;2304.00;;;;;;5151741;27;20409;-61
2022/11/11 02:35:37;;;;;;;24.52;14.93;;;307.80;2304.00;;;;;;5151498;27;20864;-61
2022/11/11 02:38:08;;;;;;;74.32;67.60;;;307.90;2304.00;;;;;;5151601;27;20051;-59
2022/11/11 02:43:32;;;;;;;27.50;18.08;;;308.00;2304.00;;;;;;5152165;27;20093;-61
2022/11/11 02:45:59;;;;;;;23.20;18.52;;;308.00;2304.00;;;;;;5151470;27;20031;-62
2022/11/11 02:48:26;;;;;;;30.38;17.95;;;308.10;2304.00;;;;;;5151668;27;20027;-62
2022/11/11 02:50:52;;;;;;;30.83;17.27;;;308.10;2304.00;;;;;;5151412;27;20046;-60
2022/11/11 02:53:18;;;;;;;24.23;16.05;;;308.10;2304.00;;;;;;5152653;27;20019;-59
2022/11/11 02:55:44;;;;;;;21.27;14.90;;;308.10;2304.00;;;;;;5155522;27;20365;-62
2022/11/11 02:58:10;;;;;;;26.83;16.67;;;308.10;2304.00;;;;;;5155547;27;20029;-60
2022/11/11 03:00:36;;;;;;;25.42;17.50;;;332.80;2329.60;;;;;;5155691;27;20030;-59
2022/11/11 03:03:02;;;;;;;26.90;16.95;;;308.10;2304.00;;;;;;5155328;27;20019;-59
2022/11/11 03:05:27;;;;;;;23.42;15.80;;;332.80;2329.60;;;;;;5155861;27;20029;-61
2022/11/11 03:07:53;;;;;;;22.00;15.40;;;308.10;2304.00;;;;;;5155297;27;20023;-59
2022/11/11 03:10:19;;;;;;;21.55;15.43;;;308.10;2304.00;;;;;;5155609;27;20472;-61
2022/11/11 03:12:44;;;;;;;24.45;16.10;;;308.10;2304.00;;;;;;5155426;27;20015;-62
2022/11/11 03:15:10;;;;;;;28.90;16.85;;;332.80;2329.60;;;;;;5154966;27;20105;-60
2022/11/11 03:17:39;;;;;;;27.98;17.52;;;308.10;2304.00;;;;;;5155345;27;20026;-62
2022/11/11 03:23:02;;;;;;;25.50;17.65;;;332.80;2329.60;;;;;;5155330;27;20053;-59
2022/11/11 03:25:38;;;;;;;23.60;15.07;;;332.80;2329.60;;;;;;5155394;27;20033;-62
2022/11/11 03:28:09;;;;;;;50.15;44.95;;;332.80;2329.60;;;;;;5154836;27;20026;-59
2022/11/11 03:30:38;;;;;;;27.08;17.85;;;332.80;2329.60;;;;;;5155339;27;20031;-58
2022/11/11 03:33:03;;;;;;;26.27;18.30;;;308.10;2304.00;;;;;;5154990;27;20023;-59
2022/11/11 03:35:29;;;;;;;27.88;16.92;;;332.80;2329.60;;;;;;5154501;27;20372;-59
2022/11/11 03:40:39;;;;;;;23.65;15.90;;;332.80;2329.60;;;;;;5134238;27;20100;-60
2022/11/11 03:43:05;;;;;;;24.92;16.98;;;332.80;2329.60;;;;;;5133902;27;20043;-59
2022/11/11 03:45:31;;;;;;;29.85;19.85;;;308.10;2304.00;;;;;;5133899;27;20080;-60
2022/11/11 03:47:57;;;;;;;22.35;15.10;;;308.10;2304.00;;;;;;5134036;27;20033;-64
2022/11/11 03:50:23;;;;;;;23.23;15.32;;;308.10;2304.00;;;;;;5133699;27;20019;-60
2022/11/11 03:52:48;;;;;;;29.30;18.20;;;308.10;2304.00;;;;;;5134082;27;20052;-60
2022/11/11 03:55:14;;;;;;;24.73;17.70;;;308.10;2304.00;;;;;;5133720;27;20023;-63
2022/11/11 03:57:41;;;;;;;25.33;16.60;;;308.00;2304.00;;;;;;5133874;27;20020;-60
2022/11/11 04:00:09;;;;;;;23.60;14.30;;;308.10;2304.00;;;;;;5133820;27;20039;-60
2022/11/11 04:10:47;;;;;;;21.35;15.35;;;307.70;2304.00;;;;;;5133851;27;20026;-63
2022/11/11 04:16:06;;;;;;;27.98;15.93;;;307.60;2304.00;;;;;;5133667;27;20026;-63
2022/11/11 04:26:53;;;;;;;22.45;14.57;;;307.30;2304.00;;;;;;5133528;27;20034;-59
2022/11/11 04:29:28;;;;;;;24.33;16.70;;;307.30;2304.00;;;;;;5133493;27;20032;-59
2022/11/11 04:34:51;;;;;;;24.17;15.75;;;307.40;2304.00;;;;;;5133699;27;20079;-62
2022/11/11 04:37:17;;;;;;;26.25;16.83;;;307.40;2304.00;;;;;;5133217;27;20050;-62
2022/11/11 04:42:30;;;;;;;25.13;17.50;;;307.40;2304.00;;;;;;5132804;27;20099;-59
2022/11/11 04:48:03;;;;;;;22.85;16.73;;;307.40;2304.00;;;;;;5132885;27;20026;-59
2022/11/11 04:50:47;;;;;;;28.05;17.73;;;307.40;2304.00;;;;;;5132936;27;20448;-59
2022/11/11 04:53:14;;;;;;;26.25;16.88;;;307.40;2304.00;;;;;;5132482;27;20110;-61
2022/11/11 04:58:28;;;;;;;29.15;16.88;;;307.40;2304.00;;;;;;5132884;27;20119;-59
2022/11/11 05:00:54;;;;;;;25.70;16.80;;;307.50;2304.00;;;;;;5132480;27;20038;-64
2022/11/11 05:03:23;;;;;;;26.95;16.00;;;307.50;2304.00;;;;;;5132652;27;20529;-60
2022/11/11 05:08:55;;;;;;;24.05;15.35;;;307.50;2304.00;;;;;;5132373;27;20030;-63
2022/11/11 05:11:32;;;;;;;24.90;18.20;;;307.60;2304.00;;;;;;5132431;27;20547;-59
2022/11/11 05:22:39;;;;;;;24.05;14.27;;;307.60;2304.00;;;;;;5132379;27;20034;-59
2022/11/11 05:25:24;;;;;;;22.98;14.65;;;307.60;2304.00;;;;;;5132117;27;20111;-59
2022/11/11 05:27:53;;;;;;;24.67;15.52;;;307.60;2304.00;;;;;;5132134;27;20033;-59
2022/11/11 05:30:20;;;;;;;19.33;13.52;;;307.60;2304.00;;;;;;5132182;27;20027;-60
2022/11/11 05:32:46;;;;;;;19.17;13.40;;;307.60;2304.00;;;;;;5132021;27;20020;-61
2022/11/11 05:35:12;;;;;;;19.90;13.40;;;307.60;2304.00;;;;;;5131749;27;20047;-59
2022/11/11 05:37:38;;;;;;;25.38;16.73;;;307.70;2304.00;;;;;;5131853;27;20461;-58
2022/11/11 05:40:05;;;;;;;24.20;15.02;;;307.60;2304.00;;;;;;5131465;27;20046;-59
2022/11/11 05:42:30;;;;;;;20.70;14.77;;;307.60;2304.00;;;;;;5131419;27;20047;-61
2022/11/11 05:44:56;;;;;;;20.95;15.07;;;307.60;2304.00;;;;;;5131723;27;20034;-59
2022/11/11 05:47:22;;;;;;;19.55;13.77;;;307.60;2304.00;;;;;;5131640;27;20055;-59
2022/11/11 05:49:48;;;;;;;23.40;14.05;;;307.70;2304.00;;;;;;5131675;27;20027;-59
2022/11/11 05:52:17;;;;;;;20.02;14.25;;;307.80;2304.00;;;;;;5131489;27;20019;-63
2022/11/11 05:54:43;;;;;;;26.10;17.95;;;307.80;2304.00;;;;;;5131217;27;20027;-63
2022/11/11 05:57:09;;;;;;;25.35;17.10;;;307.80;2304.00;;;;;;5131445;27;20025;-58
2022/11/11 05:59:35;;;;;;;20.92;14.63;;;307.80;2304.00;;;;;;5131337;27;20031;-59
2022/11/11 06:02:01;;;;;;;20.63;15.13;;;307.90;2304.00;;;;;;5131147;27;20075;-58
2022/11/11 06:04:27;;;;;;;18.17;12.88;;;307.90;2304.00;;;;;;5136947;27;20058;-62
2022/11/11 06:06:53;;;;;;;24.75;14.45;;;307.90;2304.00;;;;;;5141873;27;20022;-59
2022/11/11 06:09:19;;;;;;;19.95;13.57;;;308.00;2304.00;;;;;;5141315;27;20118;-62
2022/11/11 06:11:45;;;;;;;22.77;15.23;;;308.00;2304.00;;;;;;5140260;27;20071;-61
2022/11/11 06:14:11;;;;;;;34.35;23.38;;;308.10;2304.00;;;;;;5142169;27;20023;-58
2022/11/11 06:16:36;;;;;;;23.17;15.90;;;332.80;2329.60;;;;;;5140653;27;20094;-59
2022/11/11 06:19:03;;;;;;;19.60;14.63;;;332.90;2329.60;;;;;;5140447;27;20019;-59
2022/11/11 06:21:55;;;;;;;21.63;16.48;;;333.00;2329.60;;;;;;5131415;27;20026;-60
2022/11/11 06:24:17;;;;;;;21.92;15.60;;;333.10;2329.60;;;;;;5131137;27;20090;-59
2022/11/11 06:26:43;;;;;;;17.50;12.20;;;333.10;2329.60;;;;;;5131123;27;20030;-60
2022/11/11 06:29:08;;;;;;;25.73;17.70;;;333.10;2329.60;;;;;;5133871;27;20545;-64
2022/11/11 06:31:34;;;;;;;26.55;15.20;;;333.20;2329.60;;;;;;5131004;27;20019;-59
2022/11/11 06:34:00;;;;;;;24.77;15.25;;;333.30;2329.60;;;;;;5130689;28;20023;-60
2022/11/11 06:36:26;;;;;;;23.92;14.38;;;333.40;2329.60;;;;;;5131024;28;20023;-60
2022/11/11 06:38:51;;;;;;;21.35;14.13;;;333.20;2329.60;;;;;;5133472;27;20038;-59
2022/11/11 06:41:17;;;;;;;22.40;15.05;;;333.20;2329.60;;;;;;5130868;28;20396;-59
2022/11/11 06:43:43;;;;;;;22.08;14.38;;;333.20;2329.60;;;;;;5130578;28;20023;-59
2022/11/11 06:46:29;;;;;;;18.83;13.82;;;333.10;2329.60;;;;;;5133532;27;20042;-59
2022/11/11 06:48:55;;;;;;;24.73;14.50;;;333.10;2329.60;;;;;;5147899;27;20479;-59
2022/11/11 06:51:21;;;;;;;21.17;13.90;;;333.10;2329.60;;;;;;5151464;27;20023;-59
2022/11/11 06:53:46;;;;;;;19.75;16.40;;;333.00;2329.60;;;;;;5151474;27;20044;-61
2022/11/11 06:56:13;;;;;;;22.83;14.93;;;333.10;2329.60;;;;;;5151314;27;20027;-61
2022/11/11 06:58:38;;;;;;;20.63;15.88;;;333.40;2329.60;;;;;;5148102;27;20030;-59
2022/11/11 07:01:06;;;;;;;22.65;15.57;;;333.70;2329.60;;;;;;5151145;27;20035;-59
2022/11/11 07:03:32;;;;;;;33.88;16.85;;;358.40;2329.60;;;;;;5151526;27;20057;-60
2022/11/11 07:06:00;;;;;;;20.63;14.80;;;358.50;2329.60;;;;;;5151533;27;20026;-59
2022/11/11 07:08:26;;;;;;;17.73;12.88;;;333.70;2329.60;;;;;;5148081;27;20030;-61
2022/11/11 07:10:51;;;;;;;22.77;13.82;;;333.70;2329.60;;;;;;5130588;28;20027;-58
2022/11/11 07:13:17;;;;;;;20.67;13.27;;;333.70;2329.60;;;;;;5130649;28;20027;-58
2022/11/11 07:15:43;;;;;;;20.00;14.10;;;333.70;2329.60;;;;;;5130386;28;20019;-61
2022/11/11 07:18:09;;;;;;;25.13;15.45;;;358.40;2329.60;;;;;;5131741;27;20586;-61
2022/11/11 07:20:36;;;;;;;24.33;16.92;;;358.50;2329.60;;;;;;5132119;27;20059;-60
2022/11/11 07:23:02;;;;;;;33.10;21.52;;;358.80;2329.60;;;;;;5130407;28;20051;-59
2022/11/11 07:25:28;;;;;;;28.13;20.58;;;359.00;2329.60;;;;;;5130592;28;20099;-59
2022/11/11 07:27:54;;;;;;;27.23;17.02;;;359.00;2329.60;;;;;;5130427;28;20468;-59
2022/11/11 07:30:20;;;;;;;18.73;13.13;;;359.10;2329.60;;;;;;5112371;28;20043;-59
2022/11/11 07:32:48;;;;;;;21.35;13.13;;;384.00;2329.60;;;;;;5130546;28;20051;-62
2022/11/11 07:35:14;;;;;;;16.52;12.70;;;384.40;2329.60;;;;;;5130381;28;20565;-60
2022/11/11 07:37:41;;;;;;;21.17;14.35;;;410.00;2355.20;;;;;;5132711;27;20031;-61
2022/11/11 07:40:08;;;;;;;21.17;15.70;;;435.20;2355.20;;;;;;5132242;27;20035;-62
2022/11/11 07:42:41;;;;;;;20.02;14.68;;;410.50;2355.20;;;;;;5133722;27;20048;-62
2022/11/11 07:45:08;;;;;;;21.75;16.10;;;410.00;2355.20;;;;;;5133897;27;20024;-62
2022/11/11 07:47:34;;;;;;;18.90;12.73;;;410.20;2355.20;;;;;;5133683;27;20034;-64
2022/11/11 07:50:01;;;;;;;16.55;12.75;;;410.30;2355.20;;;;;;5133941;27;20110;-61
2022/11/11 07:52:27;;;;;;;23.25;16.63;;;435.80;2355.20;;;;;;5135719;27;20026;-59
2022/11/11 07:54:53;;;;;;;26.13;15.95;;;435.60;2355.20;;;;;;5133758;27;20027;-60
2022/11/11 07:57:18;;;;;;;18.85;14.32;;;435.20;2355.20;;;;;;5140090;27;20023;-60
2022/11/11 07:59:44;;;;;;;13.95;10.45;;;435.70;2355.20;;;;;;5143513;27;20027;-59
2022/11/11 08:02:10;;;;;;;23.45;16.27;;;461.00;2380.80;;;;;;5144558;27;20020;-59
2022/11/11 08:04:36;;;;;;;21.52;16.00;;;461.70;2380.80;;;;;;5145225;27;20026;-60
2022/11/11 08:07:02;;;;;;;22.25;17.65;;;487.10;2329.60;;;;;;5142241;27;20023;-59
2022/11/11 08:09:27;;;;;;;14.27;11.68;;;486.60;2304.00;;;;;;5154306;27;20027;-56
2022/11/11 08:14:37;;;;;;;14.07;10.50;;;435.40;2355.20;;;;;;5154589;27;20885;-57
2022/11/11 08:17:03;;;;;;;16.15;11.90;;;410.30;2355.20;;;;;;5153986;27;20097;-57
2022/11/11 08:19:29;;;;;;;16.88;13.13;;;435.60;2355.20;;;;;;5154099;27;20392;-56
2022/11/11 08:21:54;;;;;;;17.02;13.20;;;460.90;2380.80;;;;;;5153813;27;20054;-56
2022/11/11 08:24:20;;;;;;;24.92;20.00;;;461.40;2380.80;;;;;;5148338;27;20468;-57
2022/11/11 08:26:47;;;;;;;17.92;13.32;;;487.00;2278.40;;;;;;5153418;27;20023;-60
2022/11/11 08:29:13;;;;;;;15.60;12.75;;;487.10;2201.60;;;;;;5153871;27;20572;-57
2022/11/11 08:31:38;;;;;;;14.38;10.02;;;538.00;2022.40;;;;;;5153924;27;20080;-60
2022/11/11 08:34:04;;;;;;;13.52;12.13;;;563.90;1920.00;;;;;;5153717;27;20097;-57
2022/11/11 08:36:30;;;;;;;12.32;9.88;;;538.50;1945.60;;;;;;5153698;27;20775;-57
2022/11/11 08:38:56;;;;;;;15.32;11.10;;;564.00;1894.40;;;;;;5153610;27;20022;-58
2022/11/11 08:41:22;;;;;;;15.98;11.50;;;538.30;1894.40;;;;;;5138940;27;20079;-61
2022/11/11 08:43:54;;;;;;;12.00;10.73;;;538.40;1894.40;;;;;;5133008;27;20058;-58
2022/11/11 08:46:21;;;;;;;14.65;11.05;;;512.50;1971.20;;;;;;5132687;27;20087;-56
2022/11/11 08:48:46;;;;;;;16.38;10.60;;;512.20;1996.80;;;;;;5132747;27;20069;-59
2022/11/11 08:51:13;;;;;;;11.80;9.75;;;486.40;2099.20;;;;;;5132356;27;20027;-58
2022/11/11 08:53:39;;;;;;;12.50;8.90;;;461.20;2176.00;;;;;;5132725;27;20028;-56
2022/11/11 08:56:05;;;;;;;11.32;8.07;;;460.80;2227.20;;;;;;5132607;27;20027;-56
2022/11/11 08:58:31;;;;;;;12.57;8.57;;;461.00;2252.80;;;;;;5140665;27;20068;-56
2022/11/11 09:00:57;;;;;;;20.52;13.65;;;436.10;2252.80;;;;;;5143055;27;20035;-56
2022/11/11 09:03:23;;;;;;;15.70;11.63;;;435.80;2304.00;;;;;;5141083;27;20103;-58
2022/11/11 09:05:49;;;;;;;11.50;8.48;;;435.70;2329.60;;;;;;5142686;27;20023;-57
2022/11/11 09:08:15;;;;;;;12.35;9.57;;;410.50;2355.20;;;;;;5144987;27;20026;-57
2022/11/11 09:10:41;;;;;;;15.38;11.57;;;410.20;2355.20;;;;;;5142026;27;20369;-57
2022/11/11 09:13:07;;;;;;;18.60;13.52;;;410.10;2355.20;;;;;;5138754;27;20146;-59
2022/11/11 09:15:33;;;;;;;17.33;12.65;;;410.20;2355.20;;;;;;5133690;27;20023;-56
2022/11/11 09:18:00;;;;;;;16.52;12.65;;;410.10;2355.20;;;;;;5144612;27;20017;-61
2022/11/11 09:20:26;;;;;;;18.50;12.90;;;410.20;2355.20;;;;;;5145123;27;20043;-56
2022/11/11 09:22:52;;;;;;;19.00;13.02;;;410.30;2355.20;;;;;;5142144;27;20034;-57
2022/11/11 09:25:18;;;;;;;14.23;10.85;;;409.90;2355.20;;;;;;5140609;27;20420;-58
2022/11/11 09:27:52;;;;;;;15.50;12.93;;;409.70;2355.20;;;;;;5139591;27;20034;-60
2022/11/11 09:30:18;;;;;;;20.77;13.65;;;409.60;2355.20;;;;;;5140496;27;20015;-60
2022/11/11 09:32:43;;;;;;;19.00;11.10;;;409.60;2355.20;;;;;;5141383;27;20495;-57
2022/11/11 09:35:15;;;;;;;13.90;9.93;;;409.70;2355.20;;;;;;5145295;27;20410;-56
2022/11/11 09:37:58;;;;;;;18.88;14.05;;;409.70;2355.20;;;;;;5143883;27;20043;-57
2022/11/11 09:40:44;;;;;;;16.67;13.10;;;409.70;2355.20;;;;;;5144485;27;20087;-60
2022/11/11 09:43:43;;;;;;;19.17;14.18;;;409.70;2355.20;;;;;;5144930;27;20121;-58
2022/11/11 09:46:16;;;;;;;18.10;12.02;;;409.70;2355.20;;;;;;5145101;27;20033;-60
2022/11/11 09:49:01;;;;;;;15.80;10.20;;;409.70;2355.20;;;;;;5135440;27;20561;-57
2022/11/11 09:51:40;;;;;;;17.83;13.32;;;384.80;2329.60;;;;;;5142883;27;20050;-57
2022/11/11 09:54:10;;;;;;;17.17;10.85;;;384.70;2329.60;;;;;;5135524;27;20097;-57
2022/11/11 09:56:38;;;;;;;13.18;9.50;;;384.60;2329.60;;;;;;5135488;27;20543;-56
2022/11/11 09:59:22;;;;;;;10.85;8.93;;;409.90;2355.20;;;;;;5135498;27;20491;-57
2022/11/11 10:01:55;;;;;;;11.40;8.55;;;435.30;2355.20;;;;;;5142570;27;20027;-57
2022/11/11 10:04:47;;;;;;;13.82;8.38;;;435.60;2355.20;;;;;;5141969;27;20016;-57
2022/11/11 10:07:30;;;;;;;16.05;7.90;;;435.70;2355.20;;;;;;5143671;27;20117;-57
2022/11/11 10:10:08;;;;;;;12.65;9.15;;;410.50;2355.20;;;;;;5143773;27;20024;-58
2022/11/11 10:12:48;;;;;;;11.73;8.57;;;410.50;2355.20;;;;;;5144363;27;20560;-58
2022/11/11 10:15:15;;;;;;;10.32;7.80;;;435.20;2355.20;;;;;;5135776;27;20406;-56
2022/11/11 10:18:10;;;;;;;9.07;7.65;;;435.20;2355.20;;;;;;5134933;27;20045;-56
2022/11/11 10:20:47;;;;;;;13.40;8.48;;;410.50;2355.20;;;;;;5072958;28;20135;-57
2022/11/11 10:23:20;;;;;;;10.88;7.68;;;435.40;2355.20;;;;;;5070980;28;20159;-57
2022/11/11 10:25:53;;;;;;;12.15;7.38;;;435.60;2355.20;;;;;;5082827;28;20032;-56
2022/11/11 10:28:22;;;;;;;9.98;7.75;;;435.60;2355.20;;;;;;5084204;28;20019;-56
2022/11/11 10:30:51;;;;;;;11.82;8.95;;;435.60;2355.20;;;;;;5084599;28;20504;-57
2022/11/11 10:33:22;;;;;;;15.98;8.38;;;435.60;2355.20;;;;;;5083915;28;20051;-59
2022/11/11 10:35:49;;;;;;;22.75;15.73;;;435.60;2355.20;;;;;;5084571;28;20020;-56
2022/11/11 10:38:38;;;;;;;8.50;6.93;;;435.70;2355.20;;;;;;5083952;28;20037;-60
2022/11/11 10:41:25;;;;;;;35.95;27.23;;;435.80;2355.20;;;;;;5084053;28;20082;-58
2022/11/11 10:43:51;;;;;;;10.23;6.80;;;435.60;2355.20;;;;;;5072494;28;20503;-57
2022/11/11 10:46:17;;;;;;;11.13;7.75;;;435.30;2355.20;;;;;;5075693;28;20118;-61
2022/11/11 10:48:49;;;;;;;14.40;7.95;;;410.50;2355.20;;;;;;5081312;28;20115;-58
2022/11/11 10:51:17;;;;;;;21.63;14.70;;;410.50;2355.20;;;;;;5087933;28;20032;-57
2022/11/11 10:54:02;;;;;;;9.75;7.32;;;435.20;2355.20;;;;;;5087601;28;20371;-57
2022/11/11 10:56:42;;;;;;;14.07;10.35;;;435.30;2355.20;;;;;;5077029;28;20467;-57
2022/11/11 10:59:18;;;;;;;23.38;18.08;;;410.50;2355.20;;;;;;5119091;27;20015;-57
2022/11/11 11:01:56;;;;;;;13.90;10.85;;;435.20;2355.20;;;;;;5124468;27;20028;-57
2022/11/11 11:04:37;;;;;;;13.65;7.65;;;435.30;2355.20;;;;;;5130899;27;20034;-58
2022/11/11 11:07:06;;;;;;;12.63;7.70;;;435.20;2355.20;;;;;;5112260;27;20469;-58
2022/11/11 11:09:48;;;;;;;13.93;7.30;;;435.40;2355.20;;;;;;5110027;28;20032;-57
2022/11/11 11:12:23;;;;;;;11.38;7.18;;;435.30;2355.20;;;;;;5109969;28;20023;-58
2022/11/11 11:14:55;;;;;;;13.75;7.35;;;435.30;2355.20;;;;;;5112056;28;20024;-58
2022/11/11 11:17:38;;;;;;;19.35;14.02;;;435.30;2355.20;;;;;;5114147;28;20538;-56
2022/11/11 11:20:14;;;;;;;9.20;6.53;;;435.20;2355.20;;;;;;5113987;28;20043;-57
2022/11/11 11:22:48;;;;;;;10.73;8.20;;;410.30;2355.20;;;;;;5122929;27;20485;-57
2022/11/11 11:25:14;;;;;;;9.73;7.00;;;410.40;2355.20;;;;;;5134302;27;20027;-60
2022/11/11 11:27:40;;;;;;;10.02;6.25;;;410.40;2355.20;;;;;;5134202;27;20030;-58
2022/11/11 11:30:25;;;;;;;11.20;5.32;;;410.50;2355.20;;;;;;5119056;27;20020;-57
2022/11/11 11:33:02;;;;;;;10.23;6.18;;;435.20;2355.20;;;;;;5113659;28;20477;-58
2022/11/11 11:35:38;;;;;;;7.93;5.85;;;410.50;2355.20;;;;;;5113930;28;20440;-57
2022/11/11 11:38:06;;;;;;;10.77;6.25;;;410.30;2355.20;;;;;;5113472;28;20031;-60
2022/11/11 11:40:52;;;;;;;7.60;5.97;;;410.50;2355.20;;;;;;5113461;28;20043;-57
2022/11/11 11:43:34;;;;;;;10.73;6.45;;;410.30;2355.20;;;;;;5132908;27;20051;-60
2022/11/11 11:46:03;;;;;;;11.88;6.03;;;410.30;2355.20;;;;;;5134107;27;20023;-58
2022/11/11 11:48:53;;;;;;;7.97;5.55;;;410.30;2355.20;;;;;;5133948;27;20101;-60
2022/11/11 11:51:24;;;;;;;6.60;5.35;;;410.50;2355.20;;;;;;5134183;27;20027;-58
2022/11/11 11:54:29;;;;;;;10.02;6.50;;;410.50;2355.20;;;;;;5133786;27;20022;-58
2022/11/11 11:57:02;;;;;;;7.65;6.00;;;435.20;2355.20;;;;;;5133815;27;20469;-57
2022/11/11 11:59:54;;;;;;;10.85;6.75;;;435.30;2355.20;;;;;;5133772;27;20039;-57
2022/11/11 12:02:44;;;;;;;10.73;9.27;;;435.30;2304.00;;;;;;5133581;27;20053;-58
2022/11/11 12:05:15;;;;;;;9.55;6.60;;;435.20;2304.00;;;;;;5133813;27;20133;-57
2022/11/11 12:08:00;;;;;;;8.68;6.43;;;435.20;2278.40;;;;;;5133531;27;20019;-57
2022/11/11 12:10:29;;;;;;;12.52;8.00;;;410.50;2252.80;;;;;;5133709;27;20038;-57
2022/11/11 12:13:06;;;;;;;10.30;7.50;;;435.30;2201.60;;;;;;5133525;27;20050;-57
2022/11/11 12:15:35;;;;;;;11.70;7.80;;;435.40;2227.20;;;;;;5133508;27;20023;-59
2022/11/11 12:18:25;;;;;;;9.18;6.63;;;435.60;2201.60;;;;;;5133396;27;20026;-57
2022/11/11 12:20:58;;;;;;;10.57;7.57;;;435.60;2176.00;;;;;;5133188;27;20034;-58
2022/11/11 12:23:27;;;;;;;;;;;435.80;2150.40;;;;;;5133616;27;20026;-58
2022/11/11 12:26:00;;;;;;;9.65;7.55;;;435.80;2176.00;;;;;;5132889;27;19910;-58
2022/11/11 12:28:35;;;;;;;;;;;435.90;2124.80;;;;;;5133988;27;20065;-57
2022/11/11 12:31:26;;;;;;;13.15;5.68;;;436.10;2124.80;;;;;;5133048;27;19903;-58
2022/11/11 12:34:07;;;;;;;9.45;6.95;;;435.80;2176.00;;;;;;5049889;28;20033;-58
2022/11/11 12:36:59;;;;;;;12.05;6.70;;;435.60;2150.40;;;;;;5049614;28;20037;-57
2022/11/11 12:39:34;;;;;;;10.27;7.55;;;435.50;2176.00;;;;;;5049629;28;20072;-57
2022/11/11 12:42:00;;;;;;;12.20;8.10;;;435.50;2201.60;;;;;;5049398;28;20048;-57
2022/11/11 12:44:48;;;;;;;9.13;6.57;;;435.30;2201.60;;;;;;5049669;28;20037;-58
2022/11/11 12:47:20;;;;;;;12.07;8.70;;;410.30;2201.60;;;;;;5043017;28;20037;-57
2022/11/11 12:49:52;;;;;;;8.98;7.30;;;410.20;2227.20;;;;;;5049680;28;20490;-57
2022/11/11 12:52:37;;;;;;;16.58;9.05;;;410.10;2227.20;;;;;;5049579;28;20106;-57
2022/11/11 12:55:34;;;;;;;44.03;33.03;;;410.20;2252.80;;;;;;5049176;28;20033;-57
2022/11/11 12:58:19;;;;;;;36.17;24.40;;;410.30;2252.80;;;;;;5049475;28;20124;-57
2022/11/11 13:01:00;;;;;;;23.40;18.02;;;410.20;2278.40;;;;;;5009376;28;20096;-57
2022/11/11 13:03:48;;;;;;;24.75;17.45;;;410.00;2329.60;;;;;;5009585;28;20041;-57
2022/11/11 13:06:16;;;;;;;20.00;13.40;;;410.10;2329.60;;;;;;5009503;28;20041;-57
2022/11/11 13:08:47;;;;;;;22.60;16.67;;;410.10;2329.60;;;;;;5009009;28;20572;-57
2022/11/11 13:11:57;;;;;;;21.35;14.52;;;410.00;2355.20;;;;;;5035581;28;20094;-57
2022/11/11 13:14:23;;;;;;;12.68;10.13;;;410.00;2329.60;;;;;;5009121;28;20485;-56
2022/11/11 13:16:56;;;;;;;32.97;21.00;;;409.90;2329.60;;;;;;5007297;28;20059;-57
2022/11/11 13:19:42;;;;;;;25.95;19.02;;;410.00;2329.60;;;;;;5007252;28;20038;-57
2022/11/11 13:22:30;;;;;;;20.45;14.07;;;409.80;2355.20;;;;;;5007229;28;20537;-59
2022/11/11 13:24:57;;;;;;;26.13;19.02;;;409.60;2355.20;;;;;;5007316;28;20444;-57
2022/11/11 13:27:37;;;;;;;33.13;23.33;;;409.80;2355.20;;;;;;5007157;28;20120;-55
2022/11/11 13:30:24;;;;;;;31.70;22.45;;;409.80;2355.20;;;;;;5006604;28;20104;-57
2022/11/11 13:33:01;;;;;;;21.88;16.95;;;409.70;2355.20;;;;;;5006862;28;20037;-57
2022/11/11 13:35:35;;;;;;;40.60;29.17;;;409.80;2355.20;;;;;;5007156;28;20041;-56